Kunkle, Ohio
Current Conditions -  °F | °C
As of 1:55 PM on Friday 21 Nov 2014 (Local Time) from KUSE Reporting Station
Few Clouds Few Clouds  
Wind Chill: 17°   Ceiling: Unl
Heat Index: 27°   Visibility: 10mi
Dew Point: 14°   Wind: 9mph
Humidity: 59%   Direction: 240°WSW
Pressure: 30.46"   Gusts: NA
Location:  41.64°N, 84.5°W
Report Text: KUSE 211855Z AUTO 24008KT 10SM FEW029 M03/M10 A3046 RMK AO2
Loading
Personal Weather Stations






























Interactive Weather Map New forecast layout! Learn more

10-Day Weather Forecast

Advertisements
Track Severe Weather on mobile